sensor_id;sensor_type;location;lat;lon;timestamp;P1;durP1;ratioP1;P2;durP2;ratioP2
5937;SDS011;2994;51.220;4.412;2023-03-31T00:01:33;4.33;;;3.33;;
5937;SDS011;2994;51.220;4.412;2023-03-31T00:03:59;4.87;;;2.47;;
5937;SDS011;2994;51.220;4.412;2023-03-31T00:06:29;4.87;;;3.27;;
5937;SDS011;2994;51.220;4.412;2023-03-31T00:09:06;8.00;;;3.53;;
5937;SDS011;2994;51.220;4.412;2023-03-31T00:11:36;7.23;;;3.17;;
5937;SDS011;2994;51.220;4.412;2023-03-31T00:14:02;5.00;;;2.13;;
5937;SDS011;2994;51.220;4.412;2023-03-31T00:16:31;7.10;;;3.37;;
5937;SDS011;2994;51.220;4.412;2023-03-31T00:18:57;4.73;;;2.77;;
5937;SDS011;2994;51.220;4.412;2023-03-31T00:21:23;4.37;;;3.07;;
5937;SDS011;2994;51.220;4.412;2023-03-31T00:23:59;5.50;;;3.67;;
5937;SDS011;2994;51.220;4.412;2023-03-31T00:26:26;7.13;;;2.67;;
5937;SDS011;2994;51.220;4.412;2023-03-31T00:28:52;6.27;;;3.33;;
5937;SDS011;2994;51.220;4.412;2023-03-31T00:31:18;6.13;;;3.10;;
5937;SDS011;2994;51.220;4.412;2023-03-31T00:33:44;6.57;;;2.67;;
5937;SDS011;2994;51.220;4.412;2023-03-31T00:36:10;8.40;;;3.90;;
5937;SDS011;2994;51.220;4.412;2023-03-31T00:38:36;8.83;;;3.00;;
5937;SDS011;2994;51.220;4.412;2023-03-31T00:41:02;7.20;;;2.77;;
5937;SDS011;2994;51.220;4.412;2023-03-31T00:45:54;8.10;;;3.33;;
5937;SDS011;2994;51.220;4.412;2023-03-31T00:48:41;7.80;;;3.17;;
5937;SDS011;2994;51.220;4.412;2023-03-31T00:51:17;8.27;;;3.77;;
5937;SDS011;2994;51.220;4.412;2023-03-31T00:53:45;6.07;;;2.83;;
5937;SDS011;2994;51.220;4.412;2023-03-31T00:56:19;7.50;;;3.00;;
5937;SDS011;2994;51.220;4.412;2023-03-31T00:58:45;6.87;;;3.27;;
5937;SDS011;2994;51.220;4.412;2023-03-31T01:01:12;3.97;;;2.53;;
5937;SDS011;2994;51.220;4.412;2023-03-31T01:03:43;8.57;;;3.67;;
5937;SDS011;2994;51.220;4.412;2023-03-31T01:06:11;12.10;;;4.00;;
5937;SDS011;2994;51.220;4.412;2023-03-31T01:08:38;5.40;;;3.03;;
5937;SDS011;2994;51.220;4.412;2023-03-31T01:11:05;12.30;;;3.53;;
5937;SDS011;2994;51.220;4.412;2023-03-31T01:13:33;10.47;;;2.87;;
5937;SDS011;2994;51.220;4.412;2023-03-31T01:16:01;5.80;;;2.43;;
5937;SDS011;2994;51.220;4.412;2023-03-31T01:18:26;2.83;;;2.07;;
5937;SDS011;2994;51.220;4.412;2023-03-31T01:21:07;6.13;;;2.40;;
5937;SDS011;2994;51.220;4.412;2023-03-31T01:24:03;7.57;;;2.43;;
5937;SDS011;2994;51.220;4.412;2023-03-31T01:27:05;8.30;;;2.67;;
5937;SDS011;2994;51.220;4.412;2023-03-31T01:43:28;4.03;;;2.40;;
5937;SDS011;2994;51.220;4.412;2023-03-31T01:57:35;5.00;;;1.80;;
5937;SDS011;2994;51.220;4.412;2023-03-31T02:00:07;4.97;;;2.70;;
5937;SDS011;2994;51.220;4.412;2023-03-31T02:02:36;5.90;;;2.30;;
5937;SDS011;2994;51.220;4.412;2023-03-31T02:05:06;6.03;;;2.73;;
5937;SDS011;2994;51.220;4.412;2023-03-31T02:07:37;6.13;;;2.10;;
5937;SDS011;2994;51.220;4.412;2023-03-31T02:10:06;3.70;;;2.23;;
5937;SDS011;2994;51.220;4.412;2023-03-31T02:12:35;3.20;;;2.63;;
5937;SDS011;2994;51.220;4.412;2023-03-31T02:15:04;3.83;;;1.83;;
5937;SDS011;2994;51.220;4.412;2023-03-31T02:17:33;4.47;;;2.30;;
5937;SDS011;2994;51.220;4.412;2023-03-31T02:20:05;5.23;;;2.73;;
5937;SDS011;2994;51.220;4.412;2023-03-31T02:22:37;6.23;;;2.93;;
5937;SDS011;2994;51.220;4.412;2023-03-31T02:25:05;6.40;;;3.07;;
5937;SDS011;2994;51.220;4.412;2023-03-31T02:27:34;4.20;;;2.70;;
5937;SDS011;2994;51.220;4.412;2023-03-31T02:30:04;6.17;;;2.67;;
5937;SDS011;2994;51.220;4.412;2023-03-31T02:32:37;7.87;;;3.20;;
5937;SDS011;2994;51.220;4.412;2023-03-31T02:35:04;4.53;;;2.77;;
5937;SDS011;2994;51.220;4.412;2023-03-31T02:37:31;9.90;;;3.33;;
5937;SDS011;2994;51.220;4.412;2023-03-31T02:39:58;6.73;;;3.90;;
5937;SDS011;2994;51.220;4.412;2023-03-31T02:42:26;5.30;;;2.53;;
5937;SDS011;2994;51.220;4.412;2023-03-31T02:44:53;7.60;;;3.40;;
5937;SDS011;2994;51.220;4.412;2023-03-31T02:47:19;6.70;;;3.40;;
5937;SDS011;2994;51.220;4.412;2023-03-31T02:49:50;10.60;;;3.23;;
5937;SDS011;2994;51.220;4.412;2023-03-31T02:58:20;5.23;;;2.30;;
5937;SDS011;2994;51.220;4.412;2023-03-31T03:06:35;6.87;;;1.93;;
5937;SDS011;2994;51.220;4.412;2023-03-31T03:14:52;4.07;;;2.73;;
5937;SDS011;2994;51.220;4.412;2023-03-31T03:19:55;5.13;;;2.30;;
5937;SDS011;2994;51.220;4.412;2023-03-31T03:22:24;5.17;;;2.90;;
5937;SDS011;2994;51.220;4.412;2023-03-31T03:24:50;3.50;;;2.50;;
5937;SDS011;2994;51.220;4.412;2023-03-31T03:27:16;4.50;;;2.13;;
5937;SDS011;2994;51.220;4.412;2023-03-31T03:29:42;3.27;;;1.63;;
5937;SDS011;2994;51.220;4.412;2023-03-31T03:32:08;3.20;;;1.73;;
5937;SDS011;2994;51.220;4.412;2023-03-31T03:34:34;5.23;;;2.30;;
5937;SDS011;2994;51.220;4.412;2023-03-31T03:37:00;4.60;;;2.10;;
5937;SDS011;2994;51.220;4.412;2023-03-31T03:39:25;5.77;;;2.10;;
5937;SDS011;2994;51.220;4.412;2023-03-31T03:41:51;3.10;;;2.10;;
5937;SDS011;2994;51.220;4.412;2023-03-31T03:44:16;4.57;;;2.20;;
5937;SDS011;2994;51.220;4.412;2023-03-31T03:46:42;6.30;;;2.10;;
5937;SDS011;2994;51.220;4.412;2023-03-31T03:49:07;4.37;;;2.87;;
5937;SDS011;2994;51.220;4.412;2023-03-31T03:51:33;7.03;;;2.03;;
5937;SDS011;2994;51.220;4.412;2023-03-31T03:53:58;6.80;;;2.20;;
5937;SDS011;2994;51.220;4.412;2023-03-31T03:56:24;6.70;;;3.20;;
5937;SDS011;2994;51.220;4.412;2023-03-31T03:58:50;5.30;;;2.70;;
5937;SDS011;2994;51.220;4.412;2023-03-31T04:01:15;6.10;;;2.37;;
5937;SDS011;2994;51.220;4.412;2023-03-31T04:03:42;2.80;;;1.77;;
5937;SDS011;2994;51.220;4.412;2023-03-31T04:06:07;5.53;;;2.00;;
5937;SDS011;2994;51.220;4.412;2023-03-31T04:08:33;3.27;;;1.67;;
5937;SDS011;2994;51.220;4.412;2023-03-31T04:10:58;3.40;;;1.90;;
5937;SDS011;2994;51.220;4.412;2023-03-31T04:13:23;5.70;;;2.50;;
5937;SDS011;2994;51.220;4.412;2023-03-31T04:15:49;5.27;;;2.83;;
5937;SDS011;2994;51.220;4.412;2023-03-31T04:18:14;4.57;;;1.70;;
5937;SDS011;2994;51.220;4.412;2023-03-31T04:20:47;4.47;;;1.60;;
5937;SDS011;2994;51.220;4.412;2023-03-31T04:23:28;3.50;;;1.60;;
5937;SDS011;2994;51.220;4.412;2023-03-31T04:25:55;4.10;;;2.17;;
5937;SDS011;2994;51.220;4.412;2023-03-31T04:28:22;6.03;;;2.10;;
5937;SDS011;2994;51.220;4.412;2023-03-31T04:30:47;4.27;;;2.00;;
5937;SDS011;2994;51.220;4.412;2023-03-31T04:33:13;3.37;;;1.47;;
5937;SDS011;2994;51.220;4.412;2023-03-31T04:35:39;5.20;;;2.10;;
5937;SDS011;2994;51.220;4.412;2023-03-31T04:38:16;1.57;;;1.30;;
5937;SDS011;2994;51.220;4.412;2023-03-31T04:40:47;5.00;;;1.30;;
5937;SDS011;2994;51.220;4.412;2023-03-31T04:43:14;2.57;;;1.50;;
5937;SDS011;2994;51.220;4.412;2023-03-31T04:45:41;2.77;;;1.60;;
5937;SDS011;2994;51.220;4.412;2023-03-31T04:48:06;3.47;;;1.60;;
5937;SDS011;2994;51.220;4.412;2023-03-31T04:50:32;3.93;;;1.90;;
5937;SDS011;2994;51.220;4.412;2023-03-31T04:52:58;3.17;;;1.53;;
5937;SDS011;2994;51.220;4.412;2023-03-31T04:55:23;4.77;;;2.00;;
5937;SDS011;2994;51.220;4.412;2023-03-31T04:57:49;3.70;;;1.40;;
5937;SDS011;2994;51.220;4.412;2023-03-31T05:00:15;5.83;;;1.80;;
5937;SDS011;2994;51.220;4.412;2023-03-31T05:02:42;3.00;;;1.37;;
5937;SDS011;2994;51.220;4.412;2023-03-31T05:05:07;2.37;;;1.63;;
5937;SDS011;2994;51.220;4.412;2023-03-31T05:07:34;3.07;;;1.80;;
5937;SDS011;2994;51.220;4.412;2023-03-31T05:09:59;4.03;;;1.80;;
5937;SDS011;2994;51.220;4.412;2023-03-31T05:12:25;2.37;;;2.10;;
5937;SDS011;2994;51.220;4.412;2023-03-31T05:14:50;5.00;;;1.80;;
5937;SDS011;2994;51.220;4.412;2023-03-31T05:17:16;3.27;;;1.67;;
5937;SDS011;2994;51.220;4.412;2023-03-31T05:19:42;4.10;;;2.37;;
5937;SDS011;2994;51.220;4.412;2023-03-31T05:22:07;2.80;;;1.67;;
5937;SDS011;2994;51.220;4.412;2023-03-31T05:24:33;4.03;;;2.03;;
5937;SDS011;2994;51.220;4.412;2023-03-31T05:26:59;3.20;;;1.83;;
5937;SDS011;2994;51.220;4.412;2023-03-31T05:29:24;4.87;;;1.93;;
5937;SDS011;2994;51.220;4.412;2023-03-31T05:31:50;3.43;;;2.00;;
5937;SDS011;2994;51.220;4.412;2023-03-31T05:34:17;3.33;;;1.90;;
5937;SDS011;2994;51.220;4.412;2023-03-31T05:36:43;7.07;;;3.10;;
5937;SDS011;2994;51.220;4.412;2023-03-31T05:39:09;3.50;;;2.40;;
5937;SDS011;2994;51.220;4.412;2023-03-31T05:41:34;3.37;;;1.90;;
5937;SDS011;2994;51.220;4.412;2023-03-31T05:44:00;4.37;;;1.90;;
5937;SDS011;2994;51.220;4.412;2023-03-31T05:46:28;2.03;;;1.60;;
5937;SDS011;2994;51.220;4.412;2023-03-31T05:48:54;2.50;;;1.80;;
5937;SDS011;2994;51.220;4.412;2023-03-31T05:51:20;5.37;;;2.10;;
5937;SDS011;2994;51.220;4.412;2023-03-31T05:53:46;5.53;;;2.30;;
5937;SDS011;2994;51.220;4.412;2023-03-31T05:56:11;4.90;;;1.90;;
5937;SDS011;2994;51.220;4.412;2023-03-31T05:58:37;6.97;;;2.53;;
5937;SDS011;2994;51.220;4.412;2023-03-31T06:01:07;3.10;;;2.20;;
5937;SDS011;2994;51.220;4.412;2023-03-31T06:03:35;5.30;;;2.10;;
5937;SDS011;2994;51.220;4.412;2023-03-31T06:06:02;4.60;;;3.00;;
5937;SDS011;2994;51.220;4.412;2023-03-31T06:08:32;4.37;;;2.97;;
5937;SDS011;2994;51.220;4.412;2023-03-31T06:10:58;5.10;;;2.43;;
5937;SDS011;2994;51.220;4.412;2023-03-31T06:13:24;7.00;;;2.90;;
5937;SDS011;2994;51.220;4.412;2023-03-31T06:15:53;3.40;;;2.10;;
5937;SDS011;2994;51.220;4.412;2023-03-31T06:18:22;7.47;;;3.50;;
5937;SDS011;2994;51.220;4.412;2023-03-31T06:20:49;6.13;;;3.13;;
5937;SDS011;2994;51.220;4.412;2023-03-31T06:23:15;5.77;;;2.60;;
5937;SDS011;2994;51.220;4.412;2023-03-31T06:25:41;3.90;;;3.20;;
5937;SDS011;2994;51.220;4.412;2023-03-31T06:28:06;6.37;;;3.40;;
5937;SDS011;2994;51.220;4.412;2023-03-31T06:30:32;9.53;;;3.57;;
5937;SDS011;2994;51.220;4.412;2023-03-31T06:32:58;7.37;;;3.40;;
5937;SDS011;2994;51.220;4.412;2023-03-31T06:35:23;8.57;;;3.27;;
5937;SDS011;2994;51.220;4.412;2023-03-31T06:37:49;5.10;;;3.30;;
5937;SDS011;2994;51.220;4.412;2023-03-31T06:40:14;5.93;;;3.20;;
5937;SDS011;2994;51.220;4.412;2023-03-31T06:42:40;7.13;;;3.07;;
5937;SDS011;2994;51.220;4.412;2023-03-31T06:45:06;8.63;;;3.00;;
5937;SDS011;2994;51.220;4.412;2023-03-31T06:47:32;9.23;;;3.63;;
5937;SDS011;2994;51.220;4.412;2023-03-31T06:49:57;9.30;;;3.43;;
5937;SDS011;2994;51.220;4.412;2023-03-31T06:52:22;10.50;;;4.00;;
5937;SDS011;2994;51.220;4.412;2023-03-31T06:54:48;6.30;;;3.90;;
5937;SDS011;2994;51.220;4.412;2023-03-31T06:57:13;7.13;;;3.27;;
5937;SDS011;2994;51.220;4.412;2023-03-31T06:59:39;9.63;;;3.60;;
5937;SDS011;2994;51.220;4.412;2023-03-31T07:02:05;9.80;;;3.00;;
5937;SDS011;2994;51.220;4.412;2023-03-31T07:04:31;5.67;;;3.20;;
5937;SDS011;2994;51.220;4.412;2023-03-31T07:06:59;14.43;;;4.33;;
5937;SDS011;2994;51.220;4.412;2023-03-31T07:09:25;9.30;;;3.90;;
5937;SDS011;2994;51.220;4.412;2023-03-31T07:11:50;5.57;;;3.63;;
5937;SDS011;2994;51.220;4.412;2023-03-31T07:14:16;6.13;;;3.20;;
5937;SDS011;2994;51.220;4.412;2023-03-31T07:16:41;5.33;;;2.87;;
5937;SDS011;2994;51.220;4.412;2023-03-31T07:19:07;11.70;;;4.57;;
5937;SDS011;2994;51.220;4.412;2023-03-31T07:21:34;10.60;;;4.30;;
5937;SDS011;2994;51.220;4.412;2023-03-31T07:24:00;8.67;;;3.90;;
5937;SDS011;2994;51.220;4.412;2023-03-31T07:26:26;11.57;;;3.60;;
5937;SDS011;2994;51.220;4.412;2023-03-31T07:28:51;7.80;;;4.27;;
5937;SDS011;2994;51.220;4.412;2023-03-31T07:31:20;9.90;;;3.77;;
5937;SDS011;2994;51.220;4.412;2023-03-31T07:33:46;6.30;;;3.67;;
5937;SDS011;2994;51.220;4.412;2023-03-31T07:36:11;14.20;;;4.50;;
5937;SDS011;2994;51.220;4.412;2023-03-31T07:38:37;7.73;;;3.30;;
5937;SDS011;2994;51.220;4.412;2023-03-31T07:41:03;7.33;;;4.00;;
5937;SDS011;2994;51.220;4.412;2023-03-31T07:43:29;12.23;;;4.50;;
5937;SDS011;2994;51.220;4.412;2023-03-31T07:45:54;7.40;;;3.60;;
5937;SDS011;2994;51.220;4.412;2023-03-31T07:48:19;12.57;;;4.63;;
5937;SDS011;2994;51.220;4.412;2023-03-31T07:50:45;8.27;;;4.20;;
5937;SDS011;2994;51.220;4.412;2023-03-31T07:53:12;5.53;;;3.20;;
5937;SDS011;2994;51.220;4.412;2023-03-31T07:55:39;6.97;;;4.00;;
5937;SDS011;2994;51.220;4.412;2023-03-31T07:58:04;8.60;;;4.50;;
5937;SDS011;2994;51.220;4.412;2023-03-31T08:00:30;8.80;;;4.63;;
5937;SDS011;2994;51.220;4.412;2023-03-31T08:02:56;10.97;;;3.93;;
5937;SDS011;2994;51.220;4.412;2023-03-31T08:05:21;7.47;;;3.43;;
5937;SDS011;2994;51.220;4.412;2023-03-31T08:07:48;11.23;;;5.63;;
5937;SDS011;2994;51.220;4.412;2023-03-31T08:10:16;10.03;;;4.40;;
5937;SDS011;2994;51.220;4.412;2023-03-31T08:12:45;7.57;;;3.10;;
5937;SDS011;2994;51.220;4.412;2023-03-31T08:15:10;7.00;;;3.37;;
5937;SDS011;2994;51.220;4.412;2023-03-31T08:17:36;11.73;;;4.23;;
5937;SDS011;2994;51.220;4.412;2023-03-31T08:20:03;11.80;;;5.30;;
5937;SDS011;2994;51.220;4.412;2023-03-31T08:22:33;7.47;;;4.17;;
5937;SDS011;2994;51.220;4.412;2023-03-31T08:24:58;9.63;;;4.80;;
5937;SDS011;2994;51.220;4.412;2023-03-31T08:27:24;9.43;;;3.70;;
5937;SDS011;2994;51.220;4.412;2023-03-31T08:29:50;6.27;;;4.27;;
5937;SDS011;2994;51.220;4.412;2023-03-31T08:32:15;8.37;;;3.97;;
5937;SDS011;2994;51.220;4.412;2023-03-31T08:34:41;8.87;;;3.47;;
5937;SDS011;2994;51.220;4.412;2023-03-31T08:37:07;6.40;;;3.53;;
5937;SDS011;2994;51.220;4.412;2023-03-31T08:39:33;8.30;;;3.40;;
5937;SDS011;2994;51.220;4.412;2023-03-31T08:47:21;9.80;;;3.73;;
5937;SDS011;2994;51.220;4.412;2023-03-31T08:49:49;8.53;;;3.43;;
5937;SDS011;2994;51.220;4.412;2023-03-31T08:52:18;13.07;;;3.80;;
5937;SDS011;2994;51.220;4.412;2023-03-31T08:54:50;9.00;;;3.70;;
5937;SDS011;2994;51.220;4.412;2023-03-31T08:57:31;8.80;;;3.50;;
5937;SDS011;2994;51.220;4.412;2023-03-31T09:00:12;9.93;;;4.77;;
5937;SDS011;2994;51.220;4.412;2023-03-31T09:02:42;7.47;;;3.47;;
5937;SDS011;2994;51.220;4.412;2023-03-31T09:08:19;13.33;;;3.87;;
5937;SDS011;2994;51.220;4.412;2023-03-31T09:14:09;8.77;;;3.83;;
5937;SDS011;2994;51.220;4.412;2023-03-31T09:19:18;8.07;;;3.87;;
5937;SDS011;2994;51.220;4.412;2023-03-31T09:22:08;11.10;;;3.37;;
5937;SDS011;2994;51.220;4.412;2023-03-31T09:24:45;11.77;;;3.60;;
5937;SDS011;2994;51.220;4.412;2023-03-31T09:27:16;8.23;;;4.10;;
5937;SDS011;2994;51.220;4.412;2023-03-31T09:29:45;9.10;;;3.70;;
5937;SDS011;2994;51.220;4.412;2023-03-31T09:32:24;9.07;;;3.30;;
5937;SDS011;2994;51.220;4.412;2023-03-31T09:34:54;8.13;;;3.50;;
5937;SDS011;2994;51.220;4.412;2023-03-31T09:37:25;5.40;;;3.10;;
5937;SDS011;2994;51.220;4.412;2023-03-31T09:39:56;9.47;;;3.57;;
5937;SDS011;2994;51.220;4.412;2023-03-31T09:42:31;7.43;;;3.70;;
5937;SDS011;2994;51.220;4.412;2023-03-31T09:45:00;11.23;;;5.20;;
5937;SDS011;2994;51.220;4.412;2023-03-31T09:47:31;9.77;;;4.17;;
5937;SDS011;2994;51.220;4.412;2023-03-31T09:50:03;10.00;;;4.37;;
5937;SDS011;2994;51.220;4.412;2023-03-31T09:52:30;14.37;;;5.27;;
5937;SDS011;2994;51.220;4.412;2023-03-31T09:55:03;10.50;;;4.47;;
5937;SDS011;2994;51.220;4.412;2023-03-31T09:57:38;11.37;;;3.17;;
5937;SDS011;2994;51.220;4.412;2023-03-31T10:02:49;10.80;;;4.10;;
5937;SDS011;2994;51.220;4.412;2023-03-31T10:05:21;8.10;;;3.43;;
5937;SDS011;2994;51.220;4.412;2023-03-31T10:10:46;8.20;;;3.43;;
5937;SDS011;2994;51.220;4.412;2023-03-31T10:18:51;20.40;;;5.47;;
5937;SDS011;2994;51.220;4.412;2023-03-31T10:21:19;14.17;;;4.60;;
5937;SDS011;2994;51.220;4.412;2023-03-31T10:23:50;14.00;;;4.00;;
5937;SDS011;2994;51.220;4.412;2023-03-31T10:26:17;15.13;;;3.83;;
5937;SDS011;2994;51.220;4.412;2023-03-31T10:28:46;10.03;;;3.80;;
5937;SDS011;2994;51.220;4.412;2023-03-31T10:31:14;14.90;;;5.03;;
5937;SDS011;2994;51.220;4.412;2023-03-31T10:33:41;13.13;;;5.17;;
5937;SDS011;2994;51.220;4.412;2023-03-31T10:36:23;6.97;;;3.67;;
5937;SDS011;2994;51.220;4.412;2023-03-31T10:38:51;6.90;;;3.67;;
5937;SDS011;2994;51.220;4.412;2023-03-31T10:41:27;11.60;;;4.07;;
5937;SDS011;2994;51.220;4.412;2023-03-31T10:43:55;9.80;;;3.50;;
5937;SDS011;2994;51.220;4.412;2023-03-31T10:47:15;10.90;;;4.97;;
5937;SDS011;2994;51.220;4.412;2023-03-31T10:51:50;7.67;;;3.60;;
5937;SDS011;2994;51.220;4.412;2023-03-31T10:54:17;9.67;;;3.60;;
5937;SDS011;2994;51.220;4.412;2023-03-31T10:56:46;6.53;;;3.40;;
5937;SDS011;2994;51.220;4.412;2023-03-31T10:59:22;11.63;;;4.70;;
5937;SDS011;2994;51.220;4.412;2023-03-31T11:13:37;12.70;;;4.20;;
5937;SDS011;2994;51.220;4.412;2023-03-31T11:16:21;7.97;;;3.53;;
5937;SDS011;2994;51.220;4.412;2023-03-31T11:19:00;10.77;;;3.70;;
5937;SDS011;2994;51.220;4.412;2023-03-31T11:24:29;8.43;;;3.00;;
5937;SDS011;2994;51.220;4.412;2023-03-31T11:29:50;5.57;;;2.63;;
5937;SDS011;2994;51.220;4.412;2023-03-31T11:35:14;6.20;;;3.70;;
5937;SDS011;2994;51.220;4.412;2023-03-31T11:41:03;8.50;;;2.40;;
5937;SDS011;2994;51.220;4.412;2023-03-31T11:43:52;7.40;;;4.43;;
5937;SDS011;2994;51.220;4.412;2023-03-31T11:46:27;7.70;;;2.90;;
5937;SDS011;2994;51.220;4.412;2023-03-31T11:49:00;7.97;;;2.43;;
5937;SDS011;2994;51.220;4.412;2023-03-31T11:54:08;6.77;;;2.70;;
5937;SDS011;2994;51.220;4.412;2023-03-31T11:56:44;8.30;;;2.63;;
5937;SDS011;2994;51.220;4.412;2023-03-31T11:59:12;8.90;;;3.37;;
5937;SDS011;2994;51.220;4.412;2023-03-31T12:02:14;5.10;;;2.73;;
5937;SDS011;2994;51.220;4.412;2023-03-31T12:04:47;7.40;;;2.80;;
5937;SDS011;2994;51.220;4.412;2023-03-31T12:10:34;5.50;;;3.30;;
5937;SDS011;2994;51.220;4.412;2023-03-31T12:18:35;6.10;;;2.20;;
5937;SDS011;2994;51.220;4.412;2023-03-31T12:21:21;8.53;;;3.80;;
5937;SDS011;2994;51.220;4.412;2023-03-31T12:23:47;8.30;;;2.63;;
5937;SDS011;2994;51.220;4.412;2023-03-31T12:28:54;5.40;;;2.00;;
5937;SDS011;2994;51.220;4.412;2023-03-31T12:31:24;8.33;;;2.33;;
5937;SDS011;2994;51.220;4.412;2023-03-31T12:34:02;6.10;;;2.77;;
5937;SDS011;2994;51.220;4.412;2023-03-31T12:39:12;5.10;;;2.00;;
5937;SDS011;2994;51.220;4.412;2023-03-31T12:47:35;1.93;;;1.50;;
5937;SDS011;2994;51.220;4.412;2023-03-31T12:50:30;3.70;;;1.23;;
5937;SDS011;2994;51.220;4.412;2023-03-31T12:53:23;2.00;;;1.00;;
5937;SDS011;2994;51.220;4.412;2023-03-31T12:55:54;2.93;;;1.47;;
5937;SDS011;2994;51.220;4.412;2023-03-31T13:03:45;2.80;;;1.50;;
5937;SDS011;2994;51.220;4.412;2023-03-31T13:08:53;3.83;;;1.70;;
5937;SDS011;2994;51.220;4.412;2023-03-31T13:11:37;4.60;;;1.50;;
5937;SDS011;2994;51.220;4.412;2023-03-31T13:14:21;4.53;;;1.53;;
5937;SDS011;2994;51.220;4.412;2023-03-31T13:16:48;2.33;;;1.60;;
5937;SDS011;2994;51.220;4.412;2023-03-31T13:22:27;5.20;;;1.70;;
5937;SDS011;2994;51.220;4.412;2023-03-31T13:27:54;2.97;;;1.50;;
5937;SDS011;2994;51.220;4.412;2023-03-31T13:30:55;2.83;;;1.70;;
5937;SDS011;2994;51.220;4.412;2023-03-31T13:36:42;5.00;;;1.80;;
5937;SDS011;2994;51.220;4.412;2023-03-31T13:52:41;1.23;;;1.00;;
5937;SDS011;2994;51.220;4.412;2023-03-31T13:55:17;2.40;;;0.87;;
5937;SDS011;2994;51.220;4.412;2023-03-31T14:03:21;2.40;;;1.30;;
5937;SDS011;2994;51.220;4.412;2023-03-31T14:08:54;2.50;;;0.97;;
5937;SDS011;2994;51.220;4.412;2023-03-31T14:11:29;1.20;;;0.77;;
5937;SDS011;2994;51.220;4.412;2023-03-31T14:16:27;1.23;;;0.60;;
5937;SDS011;2994;51.220;4.412;2023-03-31T14:18:59;2.70;;;1.03;;
5937;SDS011;2994;51.220;4.412;2023-03-31T14:21:47;1.00;;;0.60;;
5937;SDS011;2994;51.220;4.412;2023-03-31T14:35:48;0.90;;;0.63;;
5937;SDS011;2994;51.220;4.412;2023-03-31T14:38:28;1.40;;;0.90;;
5937;SDS011;2994;51.220;4.412;2023-03-31T14:40:56;0.90;;;0.70;;
5937;SDS011;2994;51.220;4.412;2023-03-31T14:43:34;1.50;;;1.00;;
5937;SDS011;2994;51.220;4.412;2023-03-31T14:46:05;1.53;;;0.93;;
5937;SDS011;2994;51.220;4.412;2023-03-31T14:48:53;0.87;;;0.60;;
5937;SDS011;2994;51.220;4.412;2023-03-31T14:51:22;1.73;;;1.03;;
5937;SDS011;2994;51.220;4.412;2023-03-31T14:53:57;4.10;;;0.83;;
5937;SDS011;2994;51.220;4.412;2023-03-31T14:56:29;2.03;;;0.90;;
5937;SDS011;2994;51.220;4.412;2023-03-31T14:58:58;2.17;;;0.70;;
5937;SDS011;2994;51.220;4.412;2023-03-31T15:01:27;2.93;;;1.10;;
5937;SDS011;2994;51.220;4.412;2023-03-31T15:03:59;1.93;;;0.97;;
5937;SDS011;2994;51.220;4.412;2023-03-31T15:06:30;1.00;;;0.87;;
5937;SDS011;2994;51.220;4.412;2023-03-31T15:08:59;1.00;;;0.70;;
5937;SDS011;2994;51.220;4.412;2023-03-31T15:11:27;3.33;;;1.10;;
5937;SDS011;2994;51.220;4.412;2023-03-31T15:13:54;1.27;;;0.67;;
5937;SDS011;2994;51.220;4.412;2023-03-31T15:18:59;1.43;;;0.87;;
5937;SDS011;2994;51.220;4.412;2023-03-31T15:21:29;1.33;;;1.00;;
5937;SDS011;2994;51.220;4.412;2023-03-31T15:23:56;2.80;;;0.93;;
5937;SDS011;2994;51.220;4.412;2023-03-31T15:26:24;1.30;;;0.70;;
5937;SDS011;2994;51.220;4.412;2023-03-31T15:29:19;1.50;;;0.90;;
5937;SDS011;2994;51.220;4.412;2023-03-31T15:31:49;1.37;;;0.87;;
5937;SDS011;2994;51.220;4.412;2023-03-31T15:34:20;1.43;;;1.07;;
5937;SDS011;2994;51.220;4.412;2023-03-31T15:36:55;3.13;;;1.20;;
5937;SDS011;2994;51.220;4.412;2023-03-31T15:39:22;6.00;;;1.37;;
5937;SDS011;2994;51.220;4.412;2023-03-31T15:41:49;3.97;;;1.13;;
5937;SDS011;2994;51.220;4.412;2023-03-31T15:47:35;1.20;;;0.80;;
5937;SDS011;2994;51.220;4.412;2023-03-31T15:49:52;2.40;;;1.00;;
5937;SDS011;2994;51.220;4.412;2023-03-31T15:52:38;2.00;;;1.20;;
5937;SDS011;2994;51.220;4.412;2023-03-31T15:57:48;2.90;;;1.43;;
5937;SDS011;2994;51.220;4.412;2023-03-31T16:03:03;4.13;;;2.57;;
5937;SDS011;2994;51.220;4.412;2023-03-31T16:05:57;3.97;;;2.20;;
5937;SDS011;2994;51.220;4.412;2023-03-31T16:11:08;4.20;;;1.80;;
5937;SDS011;2994;51.220;4.412;2023-03-31T16:13:42;7.87;;;2.50;;
5937;SDS011;2994;51.220;4.412;2023-03-31T16:16:12;7.13;;;2.33;;
5937;SDS011;2994;51.220;4.412;2023-03-31T16:18:43;3.60;;;1.80;;
5937;SDS011;2994;51.220;4.412;2023-03-31T16:21:13;4.57;;;2.20;;
5937;SDS011;2994;51.220;4.412;2023-03-31T16:23:52;4.43;;;1.77;;
5937;SDS011;2994;51.220;4.412;2023-03-31T16:26:21;4.67;;;2.30;;
5937;SDS011;2994;51.220;4.412;2023-03-31T16:28:51;3.50;;;2.23;;
5937;SDS011;2994;51.220;4.412;2023-03-31T16:31:38;3.87;;;2.33;;
5937;SDS011;2994;51.220;4.412;2023-03-31T16:34:05;10.07;;;2.50;;
5937;SDS011;2994;51.220;4.412;2023-03-31T16:36:32;4.93;;;2.10;;
5937;SDS011;2994;51.220;4.412;2023-03-31T16:38:58;5.17;;;2.67;;
5937;SDS011;2994;51.220;4.412;2023-03-31T16:41:24;6.07;;;2.63;;
5937;SDS011;2994;51.220;4.412;2023-03-31T16:43:52;7.33;;;2.43;;
5937;SDS011;2994;51.220;4.412;2023-03-31T16:46:18;8.03;;;3.20;;
5937;SDS011;2994;51.220;4.412;2023-03-31T16:48:45;9.10;;;3.43;;
5937;SDS011;2994;51.220;4.412;2023-03-31T16:51:11;5.73;;;3.67;;
5937;SDS011;2994;51.220;4.412;2023-03-31T16:53:36;6.23;;;3.27;;
5937;SDS011;2994;51.220;4.412;2023-03-31T16:56:03;3.30;;;1.97;;
5937;SDS011;2994;51.220;4.412;2023-03-31T16:58:32;2.60;;;1.77;;
5937;SDS011;2994;51.220;4.412;2023-03-31T17:00:57;4.43;;;2.60;;
5937;SDS011;2994;51.220;4.412;2023-03-31T17:03:23;5.83;;;2.13;;
5937;SDS011;2994;51.220;4.412;2023-03-31T17:05:50;5.40;;;2.33;;
5937;SDS011;2994;51.220;4.412;2023-03-31T17:08:18;3.13;;;2.13;;
5937;SDS011;2994;51.220;4.412;2023-03-31T17:13:28;6.30;;;2.20;;
5937;SDS011;2994;51.220;4.412;2023-03-31T17:15:54;6.17;;;3.03;;
5937;SDS011;2994;51.220;4.412;2023-03-31T17:18:20;4.50;;;2.90;;
5937;SDS011;2994;51.220;4.412;2023-03-31T17:20:46;5.23;;;3.10;;
5937;SDS011;2994;51.220;4.412;2023-03-31T17:23:12;6.77;;;2.87;;
5937;SDS011;2994;51.220;4.412;2023-03-31T17:25:38;6.33;;;2.93;;
5937;SDS011;2994;51.220;4.412;2023-03-31T17:28:04;4.80;;;2.73;;
5937;SDS011;2994;51.220;4.412;2023-03-31T17:30:30;6.23;;;2.60;;
5937;SDS011;2994;51.220;4.412;2023-03-31T17:32:59;8.93;;;2.80;;
5937;SDS011;2994;51.220;4.412;2023-03-31T17:35:24;5.87;;;2.40;;
5937;SDS011;2994;51.220;4.412;2023-03-31T17:37:50;6.70;;;3.07;;
5937;SDS011;2994;51.220;4.412;2023-03-31T17:40:19;6.33;;;2.70;;
5937;SDS011;2994;51.220;4.412;2023-03-31T17:42:48;4.80;;;2.30;;
5937;SDS011;2994;51.220;4.412;2023-03-31T17:45:14;4.13;;;2.90;;
5937;SDS011;2994;51.220;4.412;2023-03-31T17:47:40;5.17;;;2.47;;
5937;SDS011;2994;51.220;4.412;2023-03-31T17:50:07;9.80;;;2.67;;
5937;SDS011;2994;51.220;4.412;2023-03-31T17:52:33;5.37;;;2.60;;
5937;SDS011;2994;51.220;4.412;2023-03-31T17:55:00;4.37;;;2.93;;
5937;SDS011;2994;51.220;4.412;2023-03-31T17:57:26;10.77;;;3.30;;
5937;SDS011;2994;51.220;4.412;2023-03-31T17:59:52;5.73;;;2.67;;
5937;SDS011;2994;51.220;4.412;2023-03-31T18:02:17;5.97;;;2.73;;
5937;SDS011;2994;51.220;4.412;2023-03-31T18:04:43;6.07;;;3.10;;
5937;SDS011;2994;51.220;4.412;2023-03-31T18:07:09;9.33;;;3.43;;
5937;SDS011;2994;51.220;4.412;2023-03-31T18:09:35;6.27;;;2.70;;
5937;SDS011;2994;51.220;4.412;2023-03-31T18:12:01;9.00;;;4.23;;
5937;SDS011;2994;51.220;4.412;2023-03-31T18:14:27;8.20;;;3.83;;
5937;SDS011;2994;51.220;4.412;2023-03-31T18:16:54;9.73;;;3.90;;
5937;SDS011;2994;51.220;4.412;2023-03-31T18:19:20;5.23;;;3.47;;
5937;SDS011;2994;51.220;4.412;2023-03-31T18:21:46;7.27;;;4.57;;
5937;SDS011;2994;51.220;4.412;2023-03-31T18:24:12;6.97;;;3.60;;
5937;SDS011;2994;51.220;4.412;2023-03-31T18:26:37;5.30;;;3.80;;
5937;SDS011;2994;51.220;4.412;2023-03-31T18:29:03;8.20;;;4.20;;
5937;SDS011;2994;51.220;4.412;2023-03-31T18:31:29;9.60;;;3.83;;
5937;SDS011;2994;51.220;4.412;2023-03-31T18:33:54;8.77;;;3.63;;
5937;SDS011;2994;51.220;4.412;2023-03-31T18:36:21;6.53;;;3.30;;
5937;SDS011;2994;51.220;4.412;2023-03-31T18:38:47;6.80;;;3.43;;
5937;SDS011;2994;51.220;4.412;2023-03-31T18:41:14;8.73;;;4.33;;